Time;durP1;ratioP1;P1;durP2;ratioP2;P2;SDS_P1;SDS_P2;PMS_P1;PMS_P2;Temp;Humidity;BMP_temperature;BMP_pressure;BME280_temperature;BME280_humidity;BME280_pressure;Samples;Min_cycle;Max_cycle;Signal;HPM_P1;HPM_P2
2022/01/21 00:01:29;;;;;;;5.70;3.63;;;;;;;19.39;50.18;100852.91;5040875;28;20055;-69
2022/01/21 00:03:55;;;;;;;5.68;3.47;;;;;;;19.38;50.01;100864.50;5041378;28;20033;-71
2022/01/21 00:06:21;;;;;;;5.43;3.97;;;;;;;19.39;49.94;100868.78;5044166;28;20028;-70
2022/01/21 00:08:48;;;;;;;5.28;3.33;;;;;;;19.39;50.02;100875.88;5038713;28;20357;-71
2022/01/21 00:11:15;;;;;;;5.68;4.28;;;;;;;19.37;49.71;100865.53;5042805;28;21275;-69
2022/01/21 00:13:42;;;;;;;4.25;3.25;;;;;;;19.33;49.56;100859.00;5044336;28;20071;-69
2022/01/21 00:16:11;;;;;;;8.20;5.40;;;;;;;19.30;49.17;100859.38;5047072;28;20095;-70
2022/01/21 00:18:39;;;;;;;7.43;4.70;;;;;;;19.28;48.92;100857.94;5043375;28;20036;-69
2022/01/21 00:32:06;;;;;;;6.55;5.07;;;;;;;19.20;48.35;100850.97;5041203;28;20125;-68
2022/01/21 00:34:31;;;;;;;6.35;5.18;;;;;;;19.20;48.25;100850.97;5044379;28;20075;-70
2022/01/21 00:36:57;;;;;;;6.30;5.25;;;;;;;19.19;47.94;100846.69;5046630;28;20449;-70
2022/01/21 00:39:26;;;;;;;6.10;4.47;;;;;;;19.18;47.98;100839.78;5032684;28;20068;-68
2022/01/21 00:41:59;;;;;;;6.30;3.92;;;;;;;19.17;48.52;100838.97;5044468;28;20052;-69
2022/01/21 00:44:25;;;;;;;4.07;3.67;;;;;;;19.20;49.36;100843.03;5040409;28;20033;-69
2022/01/21 00:46:51;;;;;;;3.80;3.40;;;;;;;19.21;49.33;100847.31;5039941;28;20074;-68
2022/01/21 00:49:17;;;;;;;4.20;3.45;;;;;;;19.18;49.53;100843.22;5038298;28;20559;-70
2022/01/21 00:51:42;;;;;;;4.97;3.65;;;;;;;19.17;49.25;100838.13;5040115;28;20040;-69
2022/01/21 00:54:08;;;;;;;6.18;3.20;;;;;;;19.15;49.29;100840.16;5043950;28;20107;-68
2022/01/21 00:56:33;;;;;;;5.57;3.20;;;;;;;19.14;49.18;100846.44;5044118;28;20063;-68
2022/01/21 00:58:59;;;;;;;4.85;3.75;;;;;;;19.12;49.08;100851.09;5036075;28;20087;-69
2022/01/21 01:01:24;;;;;;;3.97;3.58;;;;;;;19.11;49.02;100845.00;5043103;28;20033;-71
2022/01/21 01:03:50;;;;;;;6.10;4.40;;;;;;;19.10;48.78;100847.84;5042907;28;20041;-69
2022/01/21 01:06:15;;;;;;;6.00;3.33;;;;;;;19.09;48.76;100851.47;5042694;28;20040;-69
2022/01/21 01:08:41;;;;;;;5.38;3.78;;;;;;;19.08;48.55;100855.94;5041942;28;20033;-69
2022/01/21 01:21:44;;;;;;;5.80;4.60;;;;;;;19.02;48.14;100867.25;5040311;28;20590;-69
2022/01/21 01:29:23;;;;;;;4.38;3.92;;;;;;;19.00;47.97;100869.28;5047261;28;20060;-69
2022/01/21 01:31:49;;;;;;;5.03;4.53;;;;;;;19.00;47.87;100879.84;5047529;28;20033;-69
2022/01/21 01:34:15;;;;;;;5.40;4.57;;;;;;;19.00;47.86;100879.03;5044868;28;20047;-70
2022/01/21 01:36:46;;;;;;;5.13;4.63;;;;;;;19.00;47.61;100879.84;5047301;28;20029;-69
2022/01/21 01:42:15;;;;;;;7.55;5.50;;;;;;;18.99;47.15;100872.09;5046145;28;20029;-72
2022/01/21 01:50:41;;;;;;;9.40;6.07;;;;;;;18.97;47.27;100879.41;4985204;28;20030;-69
2022/01/21 01:53:08;;;;;;;5.57;4.20;;;;;;;18.97;47.10;100888.13;4985832;28;20548;-68
2022/01/21 01:55:35;;;;;;;5.18;4.68;;;;;;;18.99;47.14;100887.94;4966409;28;20044;-71
2022/01/21 01:58:00;;;;;;;6.68;5.22;;;;;;;18.99;47.13;100890.59;4986992;28;20027;-70
2022/01/21 02:00:26;;;;;;;6.93;5.57;;;;;;;18.99;47.06;100890.59;4985800;28;20050;-71
2022/01/21 02:02:51;;;;;;;5.18;4.68;;;;;;;18.99;47.08;100890.59;4995035;28;20077;-72
2022/01/21 02:05:17;;;;;;;4.50;4.07;;;;;;;18.98;46.96;100887.13;4985082;28;20093;-71
2022/01/21 02:07:42;;;;;;;5.70;5.10;;;;;;;18.98;46.79;100888.94;4982705;28;20124;-69
2022/01/21 02:10:08;;;;;;;5.85;4.45;;;;;;;18.96;46.78;100894.41;4983983;28;20046;-68
2022/01/21 02:12:34;;;;;;;5.65;4.82;;;;;;;18.96;46.78;100888.31;4984990;28;20046;-69
2022/01/21 02:15:01;;;;;;;6.80;4.63;;;;;;;18.96;46.69;100896.25;4987090;28;20030;-70
2022/01/21 02:22:44;;;;;;;4.88;3.70;;;;;;;18.89;46.72;100904.13;4993171;28;20048;-70
2022/01/21 02:25:20;;;;;;;4.13;3.25;;;;;;;18.87;46.93;100906.13;4995691;28;20851;-70
2022/01/21 02:27:48;;;;;;;6.18;3.47;;;;;;;18.85;46.70;100898.41;5043294;28;20033;-70
2022/01/21 02:30:18;;;;;;;4.53;3.60;;;;;;;18.84;46.77;100901.22;5043490;28;20069;-69
2022/01/21 02:32:48;;;;;;;4.45;3.58;;;;;;;18.82;46.73;100892.69;5044241;28;20033;-69
2022/01/21 02:35:14;;;;;;;6.22;4.00;;;;;;;18.81;46.71;100891.88;5045605;28;20029;-70
2022/01/21 02:37:40;;;;;;;5.35;2.92;;;;;;;18.80;46.73;100894.69;5046904;28;20033;-71
2022/01/21 02:40:07;;;;;;;4.03;3.42;;;;;;;18.79;46.60;100900.97;5046101;28;20032;-69
2022/01/21 02:42:33;;;;;;;6.25;4.93;;;;;;;18.79;46.37;100900.97;5045067;28;20025;-71
2022/01/21 02:44:59;;;;;;;4.05;3.65;;;;;;;18.80;46.33;100911.34;5047225;28;20036;-70
2022/01/21 02:47:24;;;;;;;4.55;4.15;;;;;;;18.80;46.13;100910.53;5046062;28;20029;-70
2022/01/21 02:49:50;;;;;;;4.97;4.38;;;;;;;18.80;46.27;100911.34;5042745;28;20531;-70
2022/01/21 02:52:18;;;;;;;5.22;4.57;;;;;;;18.79;46.24;100912.34;5043145;28;20025;-70
2022/01/21 02:54:44;;;;;;;6.22;4.93;;;;;;;18.78;46.06;100918.63;5035080;28;20036;-69
2022/01/21 02:57:09;;;;;;;5.50;4.88;;;;;;;18.77;46.12;100919.63;5034895;28;20017;-68
2022/01/21 02:59:36;;;;;;;5.50;4.88;;;;;;;18.78;46.16;100923.09;5047771;28;20043;-70
2022/01/21 03:02:02;;;;;;;5.32;4.13;;;;;;;18.77;46.10;100924.91;5046715;28;20079;-69
2022/01/21 03:06:56;;;;;;;4.88;4.18;;;;;;;18.75;45.96;100932.19;5046379;28;20120;-70
2022/01/21 03:09:22;;;;;;;4.32;3.92;;;;;;;18.73;46.04;100926.28;5048949;28;20112;-69
2022/01/21 03:11:47;;;;;;;5.40;4.10;;;;;;;18.72;45.94;100926.47;5045473;28;20543;-69
2022/01/21 03:14:13;;;;;;;4.57;4.10;;;;;;;18.70;45.83;100928.47;5046314;28;20561;-70
2022/01/21 03:16:38;;;;;;;3.90;3.55;;;;;;;18.67;45.92;100927.03;5045682;28;20037;-68
2022/01/21 03:19:04;;;;;;;3.70;3.35;;;;;;;18.66;45.98;100938.59;5045213;28;20465;-69
2022/01/21 03:21:29;;;;;;;3.72;3.15;;;;;;;18.66;45.67;100941.22;5046900;28;20365;-68
2022/01/21 03:23:55;;;;;;;4.05;3.50;;;;;;;18.65;45.89;100936.97;5048339;28;20115;-69
2022/01/21 03:26:23;;;;;;;3.90;3.55;;;;;;;18.64;45.79;100939.78;5036785;28;20393;-70
2022/01/21 03:28:57;;;;;;;2.83;2.60;;;;;;;18.62;45.85;100939.97;5044124;28;20037;-68
2022/01/21 03:31:23;;;;;;;4.00;3.35;;;;;;;18.62;45.75;100945.25;5041304;28;20041;-70
2022/01/21 03:33:49;;;;;;;3.08;2.78;;;;;;;18.62;45.72;100950.53;5046730;28;20037;-70
2022/01/21 03:36:15;;;;;;;3.25;2.92;;;;;;;18.61;45.29;100953.34;5046520;28;20052;-68
2022/01/21 03:38:41;;;;;;;4.82;4.32;;;;;;;18.59;45.90;100961.41;5046726;28;20037;-68
2022/01/21 03:41:07;;;;;;;4.22;3.83;;;;;;;18.58;45.53;100951.84;5046649;28;20075;-69
2022/01/21 03:43:33;;;;;;;4.53;3.67;;;;;;;18.57;45.50;100948.41;5046081;28;20024;-69
2022/01/21 03:45:59;;;;;;;4.18;3.78;;;;;;;18.57;45.55;100960.78;5045918;28;20070;-69
2022/01/21 03:48:26;;;;;;;3.33;3.03;;;;;;;18.55;45.40;100953.03;5047007;28;20064;-71
2022/01/21 03:50:51;;;;;;;4.10;3.70;;;;;;;18.56;45.26;100967.06;5037560;28;20037;-68
2022/01/21 03:53:17;;;;;;;4.60;4.07;;;;;;;18.57;45.44;100958.13;5043952;28;20051;-68
2022/01/21 03:55:42;;;;;;;3.85;3.55;;;;;;;18.56;45.22;100959.16;5046726;28;20028;-69
2022/01/21 03:58:10;;;;;;;4.57;4.18;;;;;;;18.55;45.10;100971.50;5043134;28;20312;-68
2022/01/21 04:00:42;;;;;;;4.30;3.90;;;;;;;18.54;45.35;100980.44;5040455;28;20025;-71
2022/01/21 04:03:08;;;;;;;3.97;3.65;;;;;;;18.56;45.26;100977.59;5045829;28;20443;-70
2022/01/21 04:05:34;;;;;;;3.65;3.35;;;;;;;18.56;45.23;100983.72;5047488;28;20059;-68
2022/01/21 04:08:01;;;;;;;3.90;3.50;;;;;;;18.58;45.16;100975.59;5046562;28;20044;-71
2022/01/21 04:10:27;;;;;;;4.10;3.40;;;;;;;18.57;45.13;100971.34;5046926;28;20037;-70
2022/01/21 04:12:52;;;;;;;3.42;3.10;;;;;;;18.57;45.10;100963.41;5043063;28;20036;-69
2022/01/21 04:15:18;;;;;;;3.10;2.83;;;;;;;18.57;45.17;100973.97;5046335;28;20047;-69
2022/01/21 04:17:43;;;;;;;3.88;3.35;;;;;;;18.57;45.08;100971.34;5042353;28;20116;-69
2022/01/21 04:20:10;;;;;;;3.60;3.30;;;;;;;18.55;45.21;100978.63;5048017;28;20078;-68
2022/01/21 04:22:36;;;;;;;3.50;3.20;;;;;;;18.55;45.04;100965.41;5044718;28;20033;-70
2022/01/21 04:25:02;;;;;;;3.58;3.28;;;;;;;18.54;45.04;100977.78;5047326;28;20029;-70
2022/01/21 04:27:28;;;;;;;3.90;3.30;;;;;;;18.53;45.08;100978.78;5044319;28;20033;-70
2022/01/21 04:29:53;;;;;;;5.47;3.75;;;;;;;18.53;44.93;100983.25;5047280;28;20025;-68
2022/01/21 04:32:19;;;;;;;2.53;2.22;;;;;;;18.51;44.98;100979.97;5040805;28;20037;-69
2022/01/21 04:34:45;;;;;;;3.25;2.55;;;;;;;18.50;44.94;100973.88;5044387;28;20032;-69
2022/01/21 04:37:13;;;;;;;2.83;2.50;;;;;;;18.48;44.93;100972.44;5045733;28;20029;-70
2022/01/21 04:40:24;;;;;;;3.53;2.47;;;;;;;18.46;44.89;100977.88;5046395;28;20056;-68
2022/01/21 04:47:56;;;;;;;3.50;2.17;;;;;;;18.39;44.97;100992.03;5041295;28;20139;-69
2022/01/21 04:50:21;;;;;;;2.30;1.85;;;;;;;18.40;44.88;100993.66;5046567;28;20033;-70
2022/01/21 04:52:47;;;;;;;3.35;2.83;;;;;;;18.39;44.88;100989.38;5048729;28;20047;-71
2022/01/21 04:55:14;;;;;;;2.95;2.65;;;;;;;18.38;44.67;100987.75;5048623;28;20025;-70
2022/01/21 04:57:39;;;;;;;2.78;2.58;;;;;;;18.35;44.75;100988.94;5048747;28;20060;-69
2022/01/21 05:00:07;;;;;;;3.92;3.17;;;;;;;18.36;44.70;100992.38;5049840;28;20033;-70
2022/01/21 05:02:35;;;;;;;2.95;2.65;;;;;;;18.36;44.45;100992.38;5048332;28;20041;-69
2022/01/21 05:05:02;;;;;;;3.22;2.58;;;;;;;18.36;44.60;101001.13;5048004;28;20029;-69
2022/01/21 05:07:29;;;;;;;3.00;2.72;;;;;;;18.37;44.56;101002.75;5047780;28;20079;-68
2022/01/21 05:09:55;;;;;;;2.88;2.45;;;;;;;18.39;44.57;101005.22;5050688;28;20095;-68
2022/01/21 05:12:23;;;;;;;2.28;1.95;;;;;;;18.42;44.54;100996.94;5049310;28;20033;-70
2022/01/21 05:17:24;;;;;;;2.40;2.20;;;;;;;18.46;44.20;101003.47;5048505;28;20028;-68
2022/01/21 05:19:50;;;;;;;2.47;2.00;;;;;;;18.49;43.87;101013.66;5045825;28;20040;-69
2022/01/21 05:22:16;;;;;;;2.88;1.95;;;;;;;18.52;44.01;101014.09;5049038;28;20028;-70
2022/01/21 05:24:41;;;;;;;2.08;1.65;;;;;;;18.54;43.97;101017.38;5050132;28;20024;-69
2022/01/21 05:27:07;;;;;;;2.67;2.47;;;;;;;18.59;43.88;101016.81;5048713;28;20219;-69
2022/01/21 05:29:34;;;;;;;2.42;2.10;;;;;;;18.62;43.83;101013.84;5050193;28;20424;-68
2022/01/21 05:32:01;;;;;;;3.03;2.15;;;;;;;18.66;43.80;101020.41;5046128;28;20106;-70
2022/01/21 05:34:26;;;;;;;2.13;1.85;;;;;;;18.69;43.82;101025.31;5044459;28;20104;-71
2022/01/21 05:36:52;;;;;;;2.65;2.30;;;;;;;18.74;43.70;101040.59;5047766;28;20112;-70
2022/01/21 05:39:18;;;;;;;2.65;2.13;;;;;;;18.77;43.57;101038.41;5049762;28;20048;-71
2022/01/21 05:41:48;;;;;;;2.53;2.10;;;;;;;18.80;43.66;101035.41;5048509;28;20024;-68
2022/01/21 05:47:07;;;;;;;3.17;2.00;;;;;;;18.89;43.59;101042.22;5018541;28;20060;-69
2022/01/21 05:49:38;;;;;;;2.40;2.20;;;;;;;18.95;43.48;101045.94;5046737;28;20634;-70
2022/01/21 05:52:16;;;;;;;2.45;2.00;;;;;;;19.01;43.38;101049.66;5039046;28;20048;-70
2022/01/21 05:54:44;;;;;;;3.88;2.80;;;;;;;19.07;43.21;101046.28;5050097;28;20055;-72
2022/01/21 05:57:11;;;;;;;2.50;2.30;;;;;;;19.11;43.34;101063.38;5047366;28;20783;-72
2022/01/21 05:59:37;;;;;;;2.88;2.55;;;;;;;19.17;43.19;101054.72;5037449;28;20082;-68
2022/01/21 06:02:05;;;;;;;3.03;2.08;;;;;;;19.21;43.29;101064.72;5045628;28;20045;-70
2022/01/21 06:04:37;;;;;;;2.90;2.20;;;;;;;19.28;42.99;101072.75;5045751;28;20087;-70
2022/01/21 06:07:04;;;;;;;2.05;1.85;;;;;;;19.31;42.88;101082.94;5048947;28;20086;-70
2022/01/21 06:09:30;;;;;;;2.33;2.08;;;;;;;19.37;42.86;101086.66;5049233;28;20150;-69
2022/01/21 06:11:55;;;;;;;2.80;2.53;;;;;;;19.41;42.85;101079.97;5038028;28;20060;-68
2022/01/21 06:14:21;;;;;;;2.47;2.22;;;;;;;19.45;43.00;101083.88;5048828;28;20033;-69
2022/01/21 06:16:46;;;;;;;2.30;2.10;;;;;;;19.49;42.76;101085.94;5047312;28;20505;-69
2022/01/21 06:19:12;;;;;;;2.38;2.03;;;;;;;19.52;42.72;101088.25;5047702;28;20032;-69
2022/01/21 06:21:37;;;;;;;1.65;1.25;;;;;;;19.59;42.60;101093.59;5046189;28;20484;-67
2022/01/21 06:24:03;;;;;;;2.00;1.75;;;;;;;19.65;42.50;101107.91;5043563;28;20124;-70
2022/01/21 06:26:28;;;;;;;2.13;1.50;;;;;;;19.71;42.43;101109.78;5045567;28;20036;-70
2022/01/21 06:28:54;;;;;;;1.67;1.58;;;;;;;19.74;42.39;101112.06;5049179;28;20049;-69
2022/01/21 06:31:19;;;;;;;1.90;1.70;;;;;;;19.78;42.40;101115.97;5047004;28;20040;-69
2022/01/21 06:33:44;;;;;;;1.65;1.48;;;;;;;19.81;42.50;101120.88;5045904;28;20025;-70
2022/01/21 06:36:11;;;;;;;2.58;2.03;;;;;;;19.84;42.30;101123.97;5047364;28;20032;-69
2022/01/21 06:38:36;;;;;;;2.20;1.83;;;;;;;19.86;42.35;101134.31;5038503;28;20031;-69
2022/01/21 06:41:02;;;;;;;1.90;1.75;;;;;;;19.89;42.34;101144.53;5046829;28;20932;-69
2022/01/21 06:43:28;;;;;;;2.00;1.80;;;;;;;19.91;42.30;101142.50;5047280;28;20123;-70
2022/01/21 06:45:53;;;;;;;2.50;1.75;;;;;;;19.95;42.15;101143.78;5039452;28;20060;-69
2022/01/21 06:48:19;;;;;;;2.25;2.05;;;;;;;19.97;42.14;101141.75;5042848;28;20029;-70
2022/01/21 06:50:44;;;;;;;2.15;1.42;;;;;;;19.99;41.98;101138.94;5046719;28;20036;-68
2022/01/21 06:53:10;;;;;;;2.00;1.83;;;;;;;20.00;42.00;101151.97;5048273;28;20029;-69
2022/01/21 06:55:36;;;;;;;1.70;1.58;;;;;;;20.05;42.05;101160.16;5047652;28;20021;-69
2022/01/21 06:58:02;;;;;;;2.15;1.92;;;;;;;20.09;42.10;101164.06;5041561;28;20136;-69
2022/01/21 07:00:28;;;;;;;1.65;1.55;;;;;;;20.09;41.98;101164.06;5046427;28;20037;-69
2022/01/21 07:02:54;;;;;;;2.05;1.83;;;;;;;20.11;41.96;101164.69;5045160;28;20037;-69
2022/01/21 07:05:22;;;;;;;2.05;1.70;;;;;;;20.13;41.92;101170.59;5046995;28;20029;-70
2022/01/21 07:07:48;;;;;;;1.90;1.70;;;;;;;20.16;41.64;101172.88;5047521;28;20020;-72
2022/01/21 07:10:15;;;;;;;2.10;1.40;;;;;;;20.18;42.00;101168.22;5045664;28;20021;-70
2022/01/21 07:12:42;;;;;;;2.30;1.73;;;;;;;20.18;41.96;101192.03;5045139;28;20049;-71
2022/01/21 07:15:10;;;;;;;1.95;1.38;;;;;;;20.18;41.89;101199.97;5046040;28;20357;-69
2022/01/21 07:17:35;;;;;;;3.25;1.83;;;;;;;20.17;41.90;101206.25;5045375;28;20028;-71
2022/01/21 07:20:03;;;;;;;2.13;1.70;;;;;;;20.17;41.90;101208.09;5047655;28;20033;-68
2022/01/21 07:22:28;;;;;;;3.00;1.55;;;;;;;20.16;41.77;101215.19;5044451;28;20029;-72
2022/01/21 07:24:54;;;;;;;1.88;1.38;;;;;;;20.15;41.98;101224.16;5046137;28;20040;-70
2022/01/21 07:27:19;;;;;;;1.92;1.42;;;;;;;20.14;41.84;101222.50;5043074;28;20040;-69
2022/01/21 07:29:45;;;;;;;2.53;1.65;;;;;;;20.12;41.78;101232.47;5046944;28;20842;-68
2022/01/21 07:32:10;;;;;;;2.28;1.80;;;;;;;20.12;41.77;101239.56;5038843;28;20677;-68
2022/01/21 07:34:36;;;;;;;2.03;1.58;;;;;;;20.11;41.82;101243.22;5045093;28;20029;-70
2022/01/21 07:37:02;;;;;;;1.77;1.38;;;;;;;20.10;41.83;101237.13;5044839;28;20338;-67
2022/01/21 07:39:29;;;;;;;1.40;1.17;;;;;;;20.09;41.65;101238.13;5047961;28;20032;-68
2022/01/21 07:41:54;;;;;;;2.40;1.77;;;;;;;20.09;41.53;101248.72;5045831;28;20021;-70
2022/01/21 07:44:20;;;;;;;2.50;1.67;;;;;;;20.08;41.72;101240.97;5048679;28;20036;-68
2022/01/21 07:46:47;;;;;;;3.38;2.00;;;;;;;20.07;41.73;101245.44;5050828;28;20033;-70
2022/01/21 07:49:16;;;;;;;3.75;1.50;;;;;;;20.05;41.66;101244.78;5048783;28;20388;-68
2022/01/21 07:51:43;;;;;;;3.13;1.60;;;;;;;20.04;41.60;101240.50;5043257;28;20372;-70
2022/01/21 07:54:08;;;;;;;2.40;2.00;;;;;;;20.03;41.83;101253.91;5043560;28;20141;-71
2022/01/21 07:56:35;;;;;;;2.05;1.75;;;;;;;20.01;41.91;101262.03;5048149;28;20025;-70
2022/01/21 07:59:09;;;;;;;2.65;1.73;;;;;;;19.96;41.61;101259.13;5045852;28;20055;-69
2022/01/21 08:01:35;;;;;;;2.13;1.50;;;;;;;19.93;42.04;101266.63;5041553;28;20041;-70
2022/01/21 08:04:01;;;;;;;2.25;2.05;;;;;;;19.89;42.27;101259.06;5044278;28;20429;-70
2022/01/21 08:06:27;;;;;;;2.13;1.73;;;;;;;19.85;42.24;101275.47;5040805;28;20037;-68
2022/01/21 08:08:57;;;;;;;2.60;1.50;;;;;;;19.83;42.27;101269.59;5046458;28;20029;-69
2022/01/21 08:11:23;;;;;;;1.83;1.40;;;;;;;19.80;42.44;101276.06;5043960;28;20037;-71
2022/01/21 08:13:50;;;;;;;3.03;1.92;;;;;;;19.80;42.36;101283.19;5046301;28;20040;-69
2022/01/21 08:16:15;;;;;;;1.73;1.60;;;;;;;19.77;42.32;101279.06;5045252;28;20033;-69
2022/01/21 08:18:41;;;;;;;2.85;2.13;;;;;;;19.76;42.39;101284.53;5045664;28;20036;-68
2022/01/21 08:21:07;;;;;;;1.98;1.55;;;;;;;19.74;42.52;101299.78;5042770;28;20179;-70
2022/01/21 08:23:32;;;;;;;2.42;1.70;;;;;;;19.76;42.45;101297.75;5039386;28;20032;-69
2022/01/21 08:25:58;;;;;;;4.43;2.00;;;;;;;19.78;42.84;101301.03;5035706;28;20026;-69
2022/01/21 08:28:23;;;;;;;3.05;2.00;;;;;;;19.77;43.50;101308.16;5038750;28;20031;-69
2022/01/21 08:30:48;;;;;;;2.38;1.98;;;;;;;19.78;43.54;101317.72;5040671;28;20036;-69
2022/01/21 08:33:14;;;;;;;7.07;2.30;;;;;;;19.79;43.31;101322.00;5047367;28;20362;-71
2022/01/21 08:35:40;;;;;;;1.95;1.30;;;;;;;19.81;43.37;101321.84;5045247;28;20021;-70
2022/01/21 08:38:06;;;;;;;5.45;2.10;;;;;;;19.80;43.98;101314.91;5045481;28;20037;-68
2022/01/21 08:40:32;;;;;;;4.53;2.38;;;;;;;19.79;44.11;101323.84;5050343;28;20078;-68
2022/01/21 08:42:57;;;;;;;6.80;1.98;;;;;;;19.76;44.29;101317.09;5049373;28;20110;-68
2022/01/21 08:45:23;;;;;;;2.50;1.80;;;;;;;19.73;44.50;101319.28;5048837;28;20033;-68
2022/01/21 08:47:50;;;;;;;4.07;1.08;;;;;;;19.71;44.81;101316.81;5045694;28;20037;-69
2022/01/21 08:50:18;;;;;;;2.70;1.35;;;;;;;19.71;44.57;101321.28;5042179;28;20060;-70
2022/01/21 08:52:44;;;;;;;1.90;1.45;;;;;;;19.73;44.38;101308.72;5049417;28;20477;-69
2022/01/21 08:55:15;;;;;;;3.55;1.42;;;;;;;19.74;44.17;101315.63;5049402;28;20032;-68
2022/01/21 08:57:43;;;;;;;2.78;1.13;;;;;;;19.73;44.12;101319.28;5045095;28;20393;-71
2022/01/21 09:00:13;;;;;;;3.13;1.58;;;;;;;19.69;43.98;101307.44;5047448;28;20040;-68
2022/01/21 09:02:39;;;;;;;1.50;1.20;;;;;;;19.67;43.91;101307.63;5046509;28;20037;-70
2022/01/21 09:05:05;;;;;;;1.70;1.00;;;;;;;19.65;43.51;101306.97;5049148;28;20025;-69
2022/01/21 09:07:30;;;;;;;2.25;1.15;;;;;;;19.63;43.40;101308.16;5044065;28;20017;-69
2022/01/21 09:09:56;;;;;;;3.83;0.68;;;;;;;19.60;43.31;101308.53;5046633;28;20039;-70
2022/01/21 09:12:21;;;;;;;2.22;1.05;;;;;;;19.55;43.08;101314.34;5039579;28;20467;-70
2022/01/21 09:14:47;;;;;;;4.20;0.75;;;;;;;19.51;43.18;101311.25;5046550;28;20044;-69
2022/01/21 09:17:13;;;;;;;3.05;1.60;;;;;;;19.57;45.02;101308.91;5048479;28;20171;-69
2022/01/21 09:19:38;;;;;;;52.58;17.17;;;;;;;19.78;48.26;101320.38;5042818;28;20033;-70
2022/01/21 09:22:04;;;;;;;83.05;26.30;;;;;;;19.97;52.40;101347.22;5040459;28;20033;-71
2022/01/21 09:24:31;;;;;;;83.40;23.20;;;;;;;20.09;53.31;101377.50;5044428;28;20038;-72
2022/01/21 09:26:57;;;;;;;102.90;28.77;;;;;;;20.12;52.32;101358.63;5039231;28;20036;-70
2022/01/21 09:29:23;;;;;;;95.57;28.10;;;;;;;20.12;50.27;101348.84;5042330;28;20033;-69
2022/01/21 09:31:48;;;;;;;126.43;38.38;;;;;;;20.12;47.41;101351.50;5038938;28;20787;-71
2022/01/21 09:34:15;;;;;;;173.88;50.47;;;;;;;20.13;46.77;101358.44;5045073;28;20379;-71
2022/01/21 09:36:42;;;;;;;148.85;43.38;;;;;;;20.15;44.30;101351.13;5044133;28;20307;-69
2022/01/21 09:39:07;;;;;;;170.77;47.17;;;;;;;20.10;41.90;101356.16;5046052;28;20104;-71
2022/01/21 09:41:34;;;;;;;87.45;27.95;;;;;;;19.98;39.91;101370.03;5047648;28;20116;-71
2022/01/21 09:44:02;;;;;;;51.58;16.15;;;;;;;19.86;36.52;101367.03;5039671;28;20124;-70
2022/01/21 09:46:34;;;;;;;48.92;13.90;;;;;;;19.79;36.27;101355.56;5041406;28;20629;-72
2022/01/21 09:49:20;;;;;;;39.97;10.93;;;;;;;19.74;36.31;101350.00;5046358;28;20078;-72
2022/01/21 09:51:49;;;;;;;29.45;9.43;;;;;;;19.69;36.62;101360.31;5046609;28;20135;-71
2022/01/21 09:54:15;;;;;;;28.13;7.18;;;;;;;19.69;37.23;101370.88;5048629;28;20477;-71
2022/01/21 09:56:45;;;;;;;23.75;7.55;;;;;;;19.68;37.55;101359.50;5046966;28;20059;-71
2022/01/21 09:59:11;;;;;;;23.45;5.55;;;;;;;19.67;37.92;101357.03;5047095;28;20049;-70
2022/01/21 10:01:38;;;;;;;19.48;6.50;;;;;;;19.66;38.29;101358.03;5041368;28;20028;-71
2022/01/21 10:04:04;;;;;;;16.30;4.47;;;;;;;19.63;38.49;101361.84;5044130;28;20110;-72
2022/01/21 10:06:32;;;;;;;15.68;4.22;;;;;;;19.61;38.58;101363.03;5041418;28;20025;-71
2022/01/21 10:08:59;;;;;;;12.25;3.63;;;;;;;19.59;38.74;101367.69;5047559;28;20345;-70
2022/01/21 10:11:24;;;;;;;10.82;3.90;;;;;;;19.57;38.87;101369.69;5033689;28;20025;-69
2022/01/21 10:13:51;;;;;;;13.80;3.38;;;;;;;19.55;39.08;101359.28;5046274;28;20021;-69
2022/01/21 10:16:17;;;;;;;13.35;3.53;;;;;;;19.53;39.05;101358.66;5049321;28;20112;-70
2022/01/21 10:19:06;;;;;;;10.20;3.25;;;;;;;19.47;39.08;101346.94;5044233;28;20504;-70
2022/01/21 10:21:36;;;;;;;9.80;2.80;;;;;;;19.44;39.34;101355.22;5048042;28;20033;-70
2022/01/21 10:24:14;;;;;;;11.48;2.80;;;;;;;19.42;39.74;101354.59;5040780;28;20036;-70
2022/01/21 10:26:53;;;;;;;10.20;2.28;;;;;;;19.40;40.18;101346.03;5045740;28;20159;-71
2022/01/21 10:29:20;;;;;;;7.00;1.83;;;;;;;19.41;40.38;101352.94;5044095;28;20039;-69
2022/01/21 10:31:54;;;;;;;7.90;2.05;;;;;;;19.39;40.84;101344.38;5044751;28;20044;-70
2022/01/21 10:34:35;;;;;;;8.57;1.88;;;;;;;19.37;41.09;101348.25;5045973;28;20544;-69
2022/01/21 10:37:08;;;;;;;4.82;1.55;;;;;;;19.36;41.13;101347.41;5041872;28;20029;-68
2022/01/21 10:40:01;;;;;;;6.63;1.45;;;;;;;19.30;39.62;101329.66;5041642;28;20090;-70
2022/01/21 10:42:28;;;;;;;5.03;1.38;;;;;;;19.27;38.61;101337.94;5034721;28;20033;-69
2022/01/21 10:44:53;;;;;;;13.82;1.48;;;;;;;19.25;37.79;101342.56;5046562;28;20051;-68
2022/01/21 10:47:31;;;;;;;12.07;1.25;;;;;;;19.23;37.57;101339.28;5044895;28;20053;-70
2022/01/21 10:50:05;;;;;;;6.45;1.10;;;;;;;19.21;38.06;101333.34;5041287;28;20108;-72
2022/01/21 10:52:37;;;;;;;12.02;1.27;;;;;;;19.22;38.26;101349.03;5042576;28;20447;-71
2022/01/21 10:55:24;;;;;;;10.55;1.20;;;;;;;19.24;38.77;101338.28;5044932;28;20128;-71
2022/01/21 10:58:07;;;;;;;10.98;1.05;;;;;;;19.22;38.80;101335.00;5043908;28;20048;-69
2022/01/21 11:00:32;;;;;;;9.52;1.45;;;;;;;19.23;39.23;101340.09;5043755;28;20068;-72
2022/01/21 11:03:09;;;;;;;10.93;1.35;;;;;;;19.23;39.81;101329.53;5043122;28;20118;-71
2022/01/21 11:05:39;;;;;;;8.38;1.05;;;;;;;19.26;40.03;101327.53;5042376;28;20493;-72
2022/01/21 11:08:09;;;;;;;5.38;1.10;;;;;;;19.24;40.05;101335.63;5036887;28;20043;-71
2022/01/21 11:10:39;;;;;;;6.13;1.00;;;;;;;19.24;40.17;101330.34;5035201;28;20036;-70
2022/01/21 11:13:13;;;;;;;5.38;1.08;;;;;;;19.21;39.99;101328.06;5039691;28;20148;-70
2022/01/21 11:15:40;;;;;;;8.13;1.02;;;;;;;19.22;40.03;101332.34;5045933;28;20288;-70
2022/01/21 11:18:08;;;;;;;5.63;0.77;;;;;;;19.19;39.95;101336.19;5038482;28;20102;-69
2022/01/21 11:20:38;;;;;;;4.47;0.95;;;;;;;19.16;39.98;101333.06;5045865;28;20061;-71
2022/01/21 11:23:04;;;;;;;6.65;0.80;;;;;;;19.12;40.03;101326.50;5043813;28;20067;-71
2022/01/21 11:25:54;;;;;;;3.05;0.60;;;;;;;19.06;39.80;101343.06;5044010;28;20053;-71
2022/01/21 11:28:27;;;;;;;5.53;0.95;;;;;;;19.04;39.55;101335.31;5044022;28;20052;-72
2022/01/21 11:30:54;;;;;;;2.85;0.60;;;;;;;19.04;38.97;101326.56;5044441;28;20553;-71
2022/01/21 11:33:21;;;;;;;4.97;0.68;;;;;;;19.03;38.39;101327.56;5037150;28;20028;-71
2022/01/21 11:35:51;;;;;;;6.50;0.60;;;;;;;19.01;38.21;101324.28;5039032;28;20033;-69
2022/01/21 11:38:19;;;;;;;3.70;0.50;;;;;;;19.02;38.30;101328.56;5042619;28;20449;-70
2022/01/21 11:40:45;;;;;;;5.85;0.93;;;;;;;19.01;38.41;101324.28;5033807;28;20048;-71
2022/01/21 11:43:11;;;;;;;2.40;0.40;;;;;;;18.99;38.41;101316.53;5038242;28;20029;-70
2022/01/21 11:50:49;;;;;;;6.80;0.90;;;;;;;18.94;38.86;101308.34;5038538;28;20404;-71
2022/01/21 12:10:34;;;;;;;2.05;0.50;;;;;;;18.83;39.08;101312.25;5074806;23;20055;-47
2022/01/21 12:21:33;;;;;;;1.90;0.40;;;;;;;18.77;37.77;101325.34;4986043;28;20583;-71
2022/01/21 12:23:59;;;;;;;8.95;0.60;;;;;;;18.78;37.77;101314.59;4983787;28;20031;-67
2022/01/21 12:26:29;;;;;;;6.22;0.45;;;;;;;18.78;37.76;101327.78;4986076;28;20034;-66
2022/01/21 12:28:56;;;;;;;5.68;0.50;;;;;;;18.75;37.89;101309.66;4982809;28;20042;-69
2022/01/21 12:31:23;;;;;;;5.43;0.50;;;;;;;18.76;37.75;101310.50;4984428;28;20042;-68
2022/01/21 12:33:55;;;;;;;4.70;0.30;;;;;;;18.74;37.60;101307.22;4982601;28;20070;-67
2022/01/21 12:36:23;;;;;;;3.05;1.08;;;;;;;18.70;37.77;101300.63;4981141;28;20093;-68
2022/01/21 12:41:17;;;;;;;3.45;0.30;;;;;;;18.71;38.30;101302.28;4983732;28;20046;-69
2022/01/21 12:43:49;;;;;;;1.70;0.40;;;;;;;18.72;38.84;101298.66;4985169;28;20097;-71
2022/01/21 12:46:27;;;;;;;1.40;0.30;;;;;;;18.72;39.49;101298.66;4975232;28;20724;-69
2022/01/21 12:48:53;;;;;;;1.05;0.30;;;;;;;18.73;39.62;101295.84;4984942;28;20100;-69
2022/01/21 12:51:34;;;;;;;0.73;0.30;;;;;;;18.72;39.30;101288.91;4983796;28;20117;-68
2022/01/21 12:56:50;;;;;;;0.98;0.55;;;;;;;18.70;39.60;101301.47;4986854;28;20137;-67